Time;durP1;ratioP1;P1;durP2;ratioP2;P2;SDS_P1;SDS_P2;PMS_P1;PMS_P2;Temp;Humidity;BMP_temperature;BMP_pressure;BME280_temperature;BME280_humidity;BME280_pressure;Samples;Min_cycle;Max_cycle;Signal;HPM_P1;HPM_P2
2022/07/17 00:00:58;;;;;;;3.28;2.08;;;13.70;99.90;;;;;;5009465;28;20029;-70
2022/07/17 00:03:24;;;;;;;3.78;2.13;;;13.70;99.90;;;;;;5007381;28;20033;-70
2022/07/17 00:05:49;;;;;;;7.90;2.80;;;13.80;99.90;;;;;;5014199;28;20033;-70
2022/07/17 00:08:15;;;;;;;2.85;2.03;;;13.80;99.90;;;;;;5010433;28;20494;-70
2022/07/17 00:10:43;;;;;;;3.28;2.15;;;13.70;99.90;;;;;;5009916;28;20033;-70
2022/07/17 00:13:09;;;;;;;5.65;2.70;;;13.70;99.90;;;;;;5007333;28;20033;-70
2022/07/17 00:15:36;;;;;;;4.57;2.17;;;13.70;99.90;;;;;;5014474;28;20133;-70
2022/07/17 00:18:02;;;;;;;4.35;2.30;;;13.60;99.90;;;;;;5011010;28;20473;-70
2022/07/17 00:20:29;;;;;;;2.40;2.10;;;13.50;99.90;;;;;;5014359;28;20033;-70
2022/07/17 00:22:55;;;;;;;6.43;2.70;;;13.40;99.90;;;;;;5014801;28;20053;-70
2022/07/17 00:25:21;;;;;;;4.13;2.28;;;13.40;99.90;;;;;;5017240;28;20033;-71
2022/07/17 00:27:47;;;;;;;5.13;2.28;;;13.30;99.90;;;;;;5017602;28;20030;-70
2022/07/17 00:30:13;;;;;;;7.88;2.95;;;13.20;99.90;;;;;;5015951;28;20037;-70
2022/07/17 00:32:39;;;;;;;7.20;2.42;;;13.20;99.90;;;;;;5017016;28;20033;-71
2022/07/17 00:35:07;;;;;;;5.10;2.78;;;13.20;99.90;;;;;;5017740;28;20349;-70
2022/07/17 00:37:41;;;;;;;6.45;2.95;;;13.10;99.90;;;;;;5012547;28;20422;-70
2022/07/17 00:40:09;;;;;;;4.57;2.20;;;13.10;99.90;;;;;;5005688;28;20030;-71
2022/07/17 00:42:35;;;;;;;4.72;2.50;;;13.10;99.90;;;;;;5016487;28;20594;-70
2022/07/17 00:45:01;;;;;;;2.65;2.17;;;13.20;99.90;;;;;;5009734;28;20021;-70
2022/07/17 00:47:27;;;;;;;4.13;2.47;;;13.30;99.90;;;;;;5014207;28;20029;-70
2022/07/17 00:49:53;;;;;;;2.50;1.90;;;13.40;99.90;;;;;;5012382;28;20108;-70
2022/07/17 00:52:18;;;;;;;5.35;2.53;;;13.40;99.90;;;;;;5008778;28;20022;-70
2022/07/17 00:54:46;;;;;;;4.10;2.28;;;13.50;99.90;;;;;;5012539;28;20139;-70
2022/07/17 00:57:14;;;;;;;3.53;2.05;;;13.50;99.90;;;;;;5016663;28;20037;-70
2022/07/17 00:59:41;;;;;;;6.55;2.28;;;13.50;99.90;;;;;;5015376;28;20033;-70
2022/07/17 01:02:08;;;;;;;7.35;2.75;;;13.50;99.90;;;;;;5013067;28;20083;-70
2022/07/17 01:04:35;;;;;;;4.18;2.38;;;13.50;99.90;;;;;;5006035;28;20528;-70
2022/07/17 01:07:01;;;;;;;3.95;2.33;;;13.50;99.90;;;;;;5011032;28;20041;-70
2022/07/17 01:09:28;;;;;;;4.70;2.55;;;13.40;99.90;;;;;;5007548;28;20441;-70
2022/07/17 01:11:55;;;;;;;6.10;2.88;;;13.40;99.90;;;;;;5014037;28;20061;-70
2022/07/17 01:14:23;;;;;;;4.72;2.72;;;13.40;99.90;;;;;;5019395;28;20044;-70
2022/07/17 01:16:51;;;;;;;4.45;2.95;;;13.30;99.90;;;;;;5005676;28;20153;-70
2022/07/17 01:19:16;;;;;;;3.67;2.55;;;13.30;99.90;;;;;;5014689;28;20417;-70
2022/07/17 01:21:45;;;;;;;4.07;2.97;;;13.30;99.90;;;;;;5001698;28;20033;-70
2022/07/17 01:24:11;;;;;;;5.00;3.00;;;13.30;99.90;;;;;;5011870;28;20450;-70
2022/07/17 01:26:39;;;;;;;4.88;3.40;;;13.20;99.90;;;;;;5016252;28;20029;-70
2022/07/17 01:29:05;;;;;;;6.40;3.08;;;13.10;99.90;;;;;;5008590;28;20607;-71
2022/07/17 01:31:31;;;;;;;8.85;3.45;;;13.10;99.90;;;;;;5012623;28;20033;-71
2022/07/17 01:33:57;;;;;;;7.03;3.45;;;13.10;99.90;;;;;;5012151;28;20077;-70
2022/07/17 01:36:23;;;;;;;6.55;3.30;;;13.00;99.90;;;;;;4993037;28;20040;-70
2022/07/17 01:38:50;;;;;;;4.38;2.58;;;12.90;99.90;;;;;;5015688;28;20045;-70
2022/07/17 01:41:16;;;;;;;3.97;2.97;;;12.90;99.90;;;;;;5013958;28;20177;-70
2022/07/17 01:43:41;;;;;;;4.13;2.63;;;12.80;99.90;;;;;;5009481;28;20291;-70
2022/07/17 01:46:07;;;;;;;6.82;3.40;;;12.70;99.90;;;;;;5013287;28;20037;-70
2022/07/17 01:48:33;;;;;;;5.32;3.10;;;12.60;99.90;;;;;;5006754;28;20144;-70
2022/07/17 01:50:59;;;;;;;5.70;2.75;;;12.50;99.90;;;;;;5003859;28;20068;-71
2022/07/17 01:53:25;;;;;;;4.32;3.20;;;12.50;99.90;;;;;;5002013;28;20059;-70
2022/07/17 01:55:50;;;;;;;4.88;2.80;;;12.40;99.90;;;;;;4998305;28;20308;-70
2022/07/17 01:58:16;;;;;;;7.10;2.47;;;12.30;99.90;;;;;;5009616;28;20193;-70
2022/07/17 02:00:42;;;;;;;5.53;3.20;;;12.30;99.90;;;;;;5006269;28;20122;-70
2022/07/17 02:03:08;;;;;;;3.95;3.28;;;12.30;99.90;;;;;;4995820;28;20025;-70
2022/07/17 02:05:34;;;;;;;6.28;3.65;;;12.30;99.90;;;;;;5008656;28;20057;-70
2022/07/17 02:07:59;;;;;;;5.55;3.42;;;12.30;99.90;;;;;;5010615;28;20029;-70
2022/07/17 02:10:25;;;;;;;7.53;4.03;;;12.20;99.90;;;;;;5007153;28;20030;-70
2022/07/17 02:12:51;;;;;;;4.97;3.70;;;12.20;99.90;;;;;;5011866;28;20041;-70
2022/07/17 02:15:16;;;;;;;5.75;3.65;;;12.20;99.90;;;;;;5015192;28;20029;-70
2022/07/17 02:17:42;;;;;;;4.22;3.05;;;12.10;99.90;;;;;;5014885;28;20045;-70
2022/07/17 02:20:11;;;;;;;6.55;3.35;;;12.10;99.90;;;;;;5010253;28;20041;-70
2022/07/17 02:22:37;;;;;;;4.15;3.50;;;12.10;99.90;;;;;;5013932;28;20037;-70
2022/07/17 02:25:04;;;;;;;6.18;3.90;;;12.10;99.90;;;;;;4990882;28;20108;-70
2022/07/17 02:27:31;;;;;;;5.75;3.45;;;12.10;99.90;;;;;;5008572;28;20508;-71
2022/07/17 02:29:57;;;;;;;4.80;3.47;;;12.10;99.90;;;;;;5012091;28;20035;-70
2022/07/17 02:32:23;;;;;;;5.30;3.10;;;12.00;99.90;;;;;;5011326;28;20025;-70
2022/07/17 02:34:49;;;;;;;4.30;3.47;;;12.00;99.90;;;;;;5013262;28;20033;-70
2022/07/17 02:37:14;;;;;;;7.03;3.22;;;12.00;99.90;;;;;;5006861;28;20041;-70
2022/07/17 02:39:52;;;;;;;7.45;3.42;;;12.00;99.90;;;;;;5009296;28;20087;-70
2022/07/17 02:42:22;;;;;;;6.57;3.67;;;12.00;99.90;;;;;;5008479;28;20049;-70
2022/07/17 02:44:48;;;;;;;6.00;3.22;;;12.00;99.90;;;;;;5013633;28;20137;-70
2022/07/17 02:47:24;;;;;;;5.50;3.65;;;11.90;99.90;;;;;;5012678;28;20633;-70
2022/07/17 02:49:51;;;;;;;7.45;3.55;;;11.90;99.90;;;;;;5009928;28;20382;-70
2022/07/17 02:52:17;;;;;;;7.72;3.28;;;11.90;99.90;;;;;;5010067;28;20030;-70
2022/07/17 02:54:42;;;;;;;6.95;3.20;;;11.90;99.90;;;;;;5014925;28;20033;-70
2022/07/17 02:57:08;;;;;;;3.40;3.00;;;11.90;99.90;;;;;;5008735;28;20036;-70
2022/07/17 02:59:34;;;;;;;7.32;3.30;;;11.90;99.90;;;;;;5015246;28;20602;-71
2022/07/17 03:02:00;;;;;;;6.30;3.60;;;11.90;99.90;;;;;;5004250;28;20030;-70
2022/07/17 03:04:26;;;;;;;5.43;2.95;;;11.90;99.90;;;;;;5010647;28;20555;-70
2022/07/17 03:06:51;;;;;;;8.68;3.58;;;11.90;99.90;;;;;;5010251;28;20029;-70
2022/07/17 03:09:17;;;;;;;5.97;3.40;;;11.80;99.90;;;;;;5006286;28;20033;-70
2022/07/17 03:11:43;;;;;;;5.50;3.30;;;11.80;99.90;;;;;;5007046;28;20081;-70
2022/07/17 03:14:09;;;;;;;6.35;3.15;;;11.80;99.90;;;;;;5007209;28;20148;-70
2022/07/17 03:16:35;;;;;;;6.88;3.55;;;11.80;99.90;;;;;;5008533;28;20040;-70
2022/07/17 03:19:01;;;;;;;6.40;3.42;;;11.80;99.90;;;;;;5010421;28;20268;-70
2022/07/17 03:21:26;;;;;;;4.72;3.60;;;11.80;99.90;;;;;;5003821;28;20526;-70
2022/07/17 03:23:52;;;;;;;5.00;3.33;;;11.80;99.90;;;;;;5010602;28;20108;-70
2022/07/17 03:26:18;;;;;;;4.47;3.38;;;11.80;99.90;;;;;;5003695;28;20052;-71
2022/07/17 03:28:43;;;;;;;5.30;3.75;;;11.80;99.90;;;;;;5013004;28;20034;-70
2022/07/17 03:31:09;;;;;;;5.10;3.35;;;11.80;99.90;;;;;;5004770;28;20037;-70
2022/07/17 03:33:35;;;;;;;6.65;3.55;;;11.80;99.90;;;;;;5007505;28;20817;-71
2022/07/17 03:36:01;;;;;;;8.38;3.13;;;11.80;99.90;;;;;;5013140;28;20080;-70
2022/07/17 03:38:26;;;;;;;4.00;2.97;;;11.80;99.90;;;;;;5005920;28;20037;-70
2022/07/17 03:40:52;;;;;;;4.07;3.17;;;11.80;99.90;;;;;;5004804;28;20098;-70
2022/07/17 03:43:18;;;;;;;6.15;3.28;;;11.80;99.90;;;;;;5011332;28;20092;-71
2022/07/17 03:45:43;;;;;;;5.30;3.10;;;11.80;99.90;;;;;;5007331;28;20401;-70
2022/07/17 03:48:09;;;;;;;6.13;3.28;;;11.80;99.90;;;;;;5012257;28;20031;-70
2022/07/17 03:50:35;;;;;;;4.55;2.90;;;11.80;99.90;;;;;;5012439;28;20026;-70
2022/07/17 03:53:00;;;;;;;4.50;2.90;;;11.80;99.90;;;;;;5013192;28;20522;-70
2022/07/17 03:55:26;;;;;;;3.63;2.95;;;11.70;99.90;;;;;;5010143;28;20128;-70
2022/07/17 03:57:52;;;;;;;4.75;3.67;;;11.60;99.90;;;;;;5009854;28;20041;-70
2022/07/17 04:00:18;;;;;;;4.85;3.20;;;11.60;99.90;;;;;;5012731;28;20215;-70
2022/07/17 04:02:43;;;;;;;5.57;3.72;;;11.60;99.90;;;;;;5007268;28;20502;-70
2022/07/17 04:05:09;;;;;;;6.53;3.10;;;11.50;99.90;;;;;;5015877;28;20548;-70
2022/07/17 04:07:37;;;;;;;4.95;3.17;;;11.50;99.90;;;;;;5012873;28;20440;-70
2022/07/17 04:10:04;;;;;;;4.00;3.00;;;11.50;99.90;;;;;;5012463;28;20084;-70
2022/07/17 04:12:30;;;;;;;4.85;3.20;;;11.50;99.90;;;;;;5009459;28;20034;-70
2022/07/17 04:14:56;;;;;;;3.30;2.70;;;11.50;99.90;;;;;;5014136;28;20021;-71
2022/07/17 04:17:22;;;;;;;3.97;2.95;;;11.50;99.90;;;;;;5013244;28;20094;-70
2022/07/17 04:19:48;;;;;;;5.68;3.55;;;11.50;99.90;;;;;;5006236;28;20034;-70
2022/07/17 04:22:14;;;;;;;5.18;3.47;;;11.50;99.90;;;;;;5015623;28;20520;-70
2022/07/17 04:24:40;;;;;;;8.93;3.25;;;11.50;99.90;;;;;;5013216;28;20954;-70
2022/07/17 04:27:06;;;;;;;3.97;2.70;;;11.60;99.90;;;;;;5007277;28;20033;-70
2022/07/17 04:29:32;;;;;;;8.63;3.13;;;11.60;99.90;;;;;;5008625;28;20029;-70
2022/07/17 04:31:58;;;;;;;4.65;3.08;;;11.60;99.90;;;;;;5011052;28;20084;-70
2022/07/17 04:34:24;;;;;;;7.30;3.30;;;11.70;99.90;;;;;;5009370;28;20033;-70
2022/07/17 04:36:50;;;;;;;4.47;2.67;;;11.80;99.90;;;;;;5011378;28;20481;-70
2022/07/17 04:39:16;;;;;;;5.43;2.72;;;11.90;99.90;;;;;;5015176;28;20033;-70
2022/07/17 04:41:41;;;;;;;3.83;2.70;;;11.90;99.90;;;;;;5009570;28;20388;-70
2022/07/17 04:44:07;;;;;;;5.72;2.90;;;12.00;99.90;;;;;;5027515;28;20071;-70
2022/07/17 04:46:33;;;;;;;4.15;2.45;;;12.00;99.90;;;;;;5030521;28;20492;-70
2022/07/17 04:48:59;;;;;;;5.32;3.05;;;12.00;99.90;;;;;;5034256;28;20041;-70
2022/07/17 04:51:24;;;;;;;4.63;3.40;;;12.00;99.90;;;;;;5033864;28;20163;-70
2022/07/17 04:53:50;;;;;;;5.40;2.70;;;12.10;99.90;;;;;;5032987;28;20551;-70
2022/07/17 04:56:15;;;;;;;3.17;2.88;;;12.10;99.90;;;;;;5034302;28;20021;-70
2022/07/17 04:58:41;;;;;;;3.90;2.60;;;12.10;99.90;;;;;;5034984;28;20068;-70
2022/07/17 05:01:07;;;;;;;5.68;2.90;;;12.20;99.90;;;;;;5025944;28;20063;-70
2022/07/17 05:03:32;;;;;;;4.65;2.70;;;12.20;99.90;;;;;;5026238;28;20087;-70
2022/07/17 05:05:58;;;;;;;4.85;2.67;;;12.30;99.90;;;;;;5028184;28;20035;-70
2022/07/17 05:08:24;;;;;;;5.45;2.70;;;12.40;99.90;;;;;;5033638;28;20055;-70
2022/07/17 05:10:49;;;;;;;4.68;3.30;;;12.40;99.90;;;;;;5025339;28;20044;-70
2022/07/17 05:13:15;;;;;;;3.10;2.53;;;12.50;99.90;;;;;;5027520;28;20075;-70
2022/07/17 05:15:41;;;;;;;4.03;2.60;;;12.60;99.90;;;;;;5033206;28;20025;-70
2022/07/17 05:18:07;;;;;;;4.25;2.78;;;12.60;99.90;;;;;;5035091;28;20056;-70
2022/07/17 05:20:34;;;;;;;4.07;2.40;;;12.70;99.90;;;;;;5028487;28;20441;-71
2022/07/17 05:22:59;;;;;;;4.20;2.42;;;12.80;99.90;;;;;;5026971;28;20039;-70
2022/07/17 05:25:25;;;;;;;3.45;2.85;;;12.90;99.90;;;;;;5029801;28;20037;-70
2022/07/17 05:27:51;;;;;;;2.58;2.25;;;13.00;99.90;;;;;;5031718;28;20107;-70
2022/07/17 05:30:17;;;;;;;3.85;2.65;;;13.00;99.90;;;;;;5030374;28;20149;-70
2022/07/17 05:32:43;;;;;;;2.58;2.25;;;13.10;99.90;;;;;;5031330;28;20044;-70
2022/07/17 05:35:09;;;;;;;5.63;3.20;;;13.20;99.90;;;;;;5030160;28;20021;-70
2022/07/17 05:37:34;;;;;;;3.22;1.98;;;13.30;99.90;;;;;;5031845;28;20073;-71
2022/07/17 05:40:00;;;;;;;3.50;2.72;;;13.30;99.90;;;;;;5033688;28;20163;-70
2022/07/17 05:42:26;;;;;;;4.53;2.28;;;13.40;99.90;;;;;;5032905;28;20045;-70
2022/07/17 05:44:51;;;;;;;4.85;2.58;;;13.50;99.90;;;;;;5032991;28;20064;-70
2022/07/17 05:47:17;;;;;;;3.00;2.42;;;13.50;99.90;;;;;;5032912;28;20028;-70
2022/07/17 05:49:43;;;;;;;3.05;2.72;;;13.60;99.90;;;;;;5037776;28;20032;-71
2022/07/17 05:52:08;;;;;;;2.78;2.25;;;13.70;99.90;;;;;;5030726;28;20036;-70
2022/07/17 05:54:34;;;;;;;4.60;2.80;;;13.80;99.90;;;;;;5031287;28;20104;-71
2022/07/17 05:57:00;;;;;;;4.75;2.47;;;13.90;99.90;;;;;;5027034;28;20040;-70
2022/07/17 05:59:26;;;;;;;2.78;2.20;;;14.00;99.90;;;;;;5031229;28;20125;-70
2022/07/17 06:01:52;;;;;;;3.15;2.55;;;14.10;99.90;;;;;;5026190;28;20029;-70
2022/07/17 06:04:18;;;;;;;3.00;2.70;;;14.30;99.90;;;;;;5020147;28;20037;-70
2022/07/17 06:06:43;;;;;;;4.30;2.38;;;14.40;99.90;;;;;;5023029;28;20047;-70
2022/07/17 06:09:09;;;;;;;3.05;2.22;;;14.60;99.90;;;;;;5027524;28;20016;-70
2022/07/17 06:11:35;;;;;;;5.40;2.63;;;14.70;99.90;;;;;;5022220;28;20128;-70
2022/07/17 06:14:00;;;;;;;10.82;2.00;;;14.90;99.90;;;;;;5029872;28;20519;-70
2022/07/17 06:16:26;;;;;;;4.45;2.28;;;15.00;99.90;;;;;;5028586;28;20459;-71
2022/07/17 06:18:52;;;;;;;3.83;2.03;;;15.10;99.90;;;;;;5031159;28;20499;-71
2022/07/17 06:21:17;;;;;;;2.75;2.55;;;15.30;99.90;;;;;;5029211;28;20484;-70
2022/07/17 06:23:43;;;;;;;5.35;3.13;;;15.50;99.90;;;;;;5028430;28;20039;-70
2022/07/17 06:26:09;;;;;;;3.40;2.35;;;15.60;99.90;;;;;;5027683;28;20033;-70
2022/07/17 06:28:34;;;;;;;3.72;2.33;;;15.80;99.90;;;;;;5025541;28;20056;-70
2022/07/17 06:31:00;;;;;;;3.97;2.33;;;16.00;99.90;;;;;;5017694;28;20025;-70
2022/07/17 06:33:26;;;;;;;4.38;2.55;;;16.10;99.90;;;;;;5023145;28;20035;-70
2022/07/17 06:35:52;;;;;;;3.75;1.90;;;16.30;99.90;;;;;;5019272;28;20043;-71
2022/07/17 06:38:18;;;;;;;20.08;14.65;;;16.40;99.90;;;;;;5020867;28;20377;-71
2022/07/17 06:40:43;;;;;;;53.60;36.28;;;16.50;99.90;;;;;;5019857;28;20036;-71
2022/07/17 06:43:09;;;;;;;6.93;5.00;;;16.60;99.90;;;;;;5027030;28;20043;-71
2022/07/17 06:45:35;;;;;;;5.20;3.17;;;16.70;99.90;;;;;;5030795;28;20416;-72
2022/07/17 06:48:01;;;;;;;3.95;1.73;;;16.80;99.90;;;;;;5024449;28;20029;-71
2022/07/17 06:50:27;;;;;;;4.28;2.47;;;16.90;99.90;;;;;;5028399;28;20029;-71
2022/07/17 06:52:53;;;;;;;3.83;2.05;;;17.00;99.90;;;;;;5025019;28;20090;-71
2022/07/17 06:55:18;;;;;;;5.28;2.53;;;17.10;99.90;;;;;;5026060;28;20029;-72
2022/07/17 06:57:44;;;;;;;5.97;2.25;;;17.20;99.90;;;;;;5028003;28;20056;-71
2022/07/17 07:00:10;;;;;;;4.45;2.10;;;17.40;99.90;;;;;;5027322;28;20040;-71
2022/07/17 07:02:37;;;;;;;5.88;2.40;;;17.70;99.90;;;;;;5023801;28;20059;-71
2022/07/17 07:05:04;;;;;;;4.88;1.70;;;18.00;99.90;;;;;;5017768;28;20101;-71
2022/07/17 07:07:30;;;;;;;4.32;1.92;;;18.30;99.90;;;;;;5022360;28;20131;-72
2022/07/17 07:09:56;;;;;;;4.97;1.65;;;18.40;99.90;;;;;;5024101;28;20504;-72
2022/07/17 07:12:22;;;;;;;4.07;1.95;;;18.70;99.90;;;;;;5020192;28;20028;-72
2022/07/17 07:14:47;;;;;;;3.50;1.98;;;18.80;99.90;;;;;;5031773;28;20025;-72
2022/07/17 07:17:13;;;;;;;3.42;2.30;;;19.10;99.90;;;;;;5022483;28;20044;-72
2022/07/17 07:19:39;;;;;;;5.72;2.15;;;19.30;99.90;;;;;;5029323;28;20068;-72
2022/07/17 07:22:04;;;;;;;3.38;1.85;;;19.40;99.90;;;;;;5020805;28;20475;-72
2022/07/17 07:24:30;;;;;;;10.07;1.92;;;19.60;99.90;;;;;;5029753;28;20384;-71
2022/07/17 07:26:56;;;;;;;7.40;1.75;;;19.80;99.90;;;;;;5024197;28;20055;-71
2022/07/17 07:29:21;;;;;;;2.17;1.50;;;20.00;99.90;;;;;;5027293;28;20021;-71
2022/07/17 07:31:47;;;;;;;4.88;1.67;;;20.10;99.90;;;;;;5023975;28;20025;-71
2022/07/17 07:34:13;;;;;;;3.95;1.80;;;20.40;99.90;;;;;;5019340;28;20025;-71
2022/07/17 07:36:39;;;;;;;6.40;1.80;;;20.60;99.90;;;;;;5020229;28;20400;-71
2022/07/17 07:39:05;;;;;;;4.07;2.03;;;21.40;99.90;;;;;;5025196;28;20037;-71
2022/07/17 07:41:30;;;;;;;3.65;1.40;;;21.70;99.90;;;;;;5019415;28;20079;-72
2022/07/17 07:43:56;;;;;;;4.22;1.67;;;21.90;99.90;;;;;;5026537;28;20049;-72
2022/07/17 07:46:21;;;;;;;3.05;1.67;;;22.70;99.90;;;;;;5023400;28;20180;-72
2022/07/17 07:48:47;;;;;;;1.35;1.13;;;24.50;99.90;;;;;;5025090;28;20121;-72
2022/07/17 07:51:13;;;;;;;1.90;1.20;;;27.60;97.90;;;;;;5019859;28;20062;-72
2022/07/17 07:53:38;;;;;;;3.22;1.48;;;29.60;72.70;;;;;;5019245;28;20094;-72
2022/07/17 07:56:04;;;;;;;3.88;1.40;;;31.80;58.60;;;;;;5023707;28;20036;-71
2022/07/17 07:58:30;;;;;;;4.55;1.17;;;33.70;54.30;;;;;;5021581;28;20669;-72
2022/07/17 08:00:55;;;;;;;2.28;1.25;;;34.40;47.90;;;;;;5013144;28;20025;-72
2022/07/17 08:03:21;;;;;;;2.35;1.45;;;35.90;44.80;;;;;;5016531;28;20400;-72
2022/07/17 08:05:47;;;;;;;3.70;1.05;;;37.30;42.60;;;;;;5013784;28;20484;-72
2022/07/17 08:08:12;;;;;;;1.77;1.05;;;38.80;39.00;;;;;;5017600;28;20033;-72
2022/07/17 08:10:38;;;;;;;5.18;1.42;;;38.40;39.70;;;;;;5017545;28;20405;-72
2022/07/17 08:13:04;;;;;;;4.15;1.00;;;39.00;35.80;;;;;;5028484;28;20533;-72
2022/07/17 08:15:30;;;;;;;3.50;1.20;;;38.30;35.80;;;;;;5029038;28;20060;-72
2022/07/17 08:17:55;;;;;;;3.67;1.58;;;39.60;33.00;;;;;;5025887;28;20044;-72
2022/07/17 08:20:22;;;;;;;2.85;1.05;;;40.30;35.20;;;;;;5024597;28;20029;-72
2022/07/17 08:22:49;;;;;;;2.83;1.25;;;40.40;33.30;;;;;;5026935;28;20435;-69
2022/07/17 08:25:15;;;;;;;2.10;0.95;;;40.10;32.10;;;;;;5022476;28;20500;-72
2022/07/17 08:27:42;;;;;;;2.38;1.27;;;41.00;33.80;;;;;;5015888;28;20040;-72
2022/07/17 08:30:09;;;;;;;2.70;1.08;;;41.70;33.00;;;;;;5023531;28;20079;-73
2022/07/17 08:32:35;;;;;;;3.33;1.20;;;42.30;32.10;;;;;;5019133;28;20028;-72
2022/07/17 08:35:02;;;;;;;1.88;1.23;;;42.50;33.50;;;;;;5021893;28;20068;-72
2022/07/17 08:37:28;;;;;;;1.85;1.15;;;40.90;29.70;;;;;;5021662;28;20074;-73
2022/07/17 08:39:54;;;;;;;3.47;1.30;;;42.00;31.30;;;;;;5014117;28;20382;-72
2022/07/17 08:42:20;;;;;;;1.42;1.00;;;41.70;31.60;;;;;;5028171;28;20052;-73
2022/07/17 08:44:46;;;;;;;3.35;1.23;;;42.20;31.80;;;;;;5027377;28;20028;-72
2022/07/17 08:47:13;;;;;;;2.83;1.35;;;42.00;31.50;;;;;;5022711;28;20031;-71
2022/07/17 08:49:46;;;;;;;2.22;1.20;;;41.90;30.90;;;;;;5026100;28;20044;-71
2022/07/17 08:52:15;;;;;;;4.10;1.00;;;42.50;32.10;;;;;;5029849;28;20025;-71
2022/07/17 08:54:41;;;;;;;2.10;1.30;;;42.40;28.70;;;;;;5025854;28;20025;-72
2022/07/17 08:57:09;;;;;;;1.67;1.38;;;42.20;30.00;;;;;;5031914;28;20025;-71
2022/07/17 08:59:35;;;;;;;3.47;1.63;;;41.10;27.40;;;;;;5018596;28;20056;-71
2022/07/17 09:02:03;;;;;;;1.65;1.00;;;40.00;30.00;;;;;;5022718;28;20668;-72
2022/07/17 09:04:28;;;;;;;4.97;1.58;;;40.90;28.10;;;;;;5027435;28;20386;-71
2022/07/17 09:07:02;;;;;;;3.67;1.02;;;39.70;28.00;;;;;;5028708;28;20542;-71
2022/07/17 09:09:28;;;;;;;3.00;1.20;;;40.70;28.20;;;;;;5026818;28;20710;-71
2022/07/17 09:11:55;;;;;;;2.17;1.08;;;40.70;32.00;;;;;;5021653;28;20040;-71
2022/07/17 09:14:21;;;;;;;3.53;1.08;;;40.70;29.00;;;;;;5026296;28;20040;-71
2022/07/17 09:17:00;;;;;;;1.67;0.93;;;41.20;29.00;;;;;;5021946;28;20060;-71
2022/07/17 09:19:26;;;;;;;3.75;1.13;;;40.90;28.70;;;;;;5023194;28;20109;-71
2022/07/17 09:21:52;;;;;;;2.03;1.00;;;40.50;27.00;;;;;;5019312;28;20497;-69
2022/07/17 09:24:17;;;;;;;1.25;1.13;;;40.90;30.00;;;;;;5015030;28;21022;-71
2022/07/17 09:26:44;;;;;;;3.55;1.10;;;40.10;26.70;;;;;;5011088;28;20021;-71
2022/07/17 09:29:12;;;;;;;1.30;1.13;;;40.50;28.80;;;;;;5016989;28;20614;-71
2022/07/17 09:31:38;;;;;;;3.28;1.48;;;40.90;27.30;;;;;;5032907;28;20032;-71
2022/07/17 09:34:04;;;;;;;3.72;1.05;;;39.70;27.90;;;;;;5032586;28;20059;-71
2022/07/17 09:36:29;;;;;;;2.03;1.15;;;38.90;30.10;;;;;;5033257;28;20033;-71
2022/07/17 09:38:57;;;;;;;1.67;1.08;;;39.70;26.40;;;;;;5029780;28;20548;-71
2022/07/17 09:41:25;;;;;;;1.20;1.10;;;39.10;26.00;;;;;;5027083;28;20066;-71
2022/07/17 09:43:54;;;;;;;2.22;0.88;;;38.70;25.80;;;;;;5034960;28;20041;-70
2022/07/17 09:46:26;;;;;;;1.13;1.00;;;39.20;28.40;;;;;;5034525;28;20143;-70
2022/07/17 09:48:57;;;;;;;2.88;0.80;;;39.40;27.80;;;;;;5037041;28;20131;-71
2022/07/17 09:51:32;;;;;;;2.22;0.80;;;38.90;29.30;;;;;;5019428;28;21045;-72
2022/07/17 09:54:00;;;;;;;4.10;1.00;;;38.50;29.40;;;;;;5019056;28;20854;-71
2022/07/17 09:56:28;;;;;;;1.08;0.98;;;39.10;26.70;;;;;;5031269;28;20033;-70
2022/07/17 09:58:59;;;;;;;1.95;1.17;;;39.30;27.20;;;;;;5025738;28;20148;-70
2022/07/17 10:01:25;;;;;;;1.35;1.00;;;39.30;27.60;;;;;;5036383;28;20307;-70
2022/07/17 10:03:53;;;;;;;2.15;1.08;;;39.20;30.20;;;;;;5029483;28;20029;-71
2022/07/17 10:06:20;;;;;;;1.55;1.00;;;39.50;26.00;;;;;;5024934;28;20033;-71
2022/07/17 10:08:46;;;;;;;1.52;0.98;;;39.00;26.40;;;;;;5022978;28;20034;-70
2022/07/17 10:11:16;;;;;;;2.85;0.90;;;39.10;25.40;;;;;;5025474;28;20313;-71
2022/07/17 10:13:45;;;;;;;2.03;1.10;;;38.70;26.40;;;;;;5034980;28;20029;-71
2022/07/17 10:16:11;;;;;;;1.33;0.90;;;38.80;27.10;;;;;;5019499;28;20278;-72
2022/07/17 10:18:42;;;;;;;1.75;0.90;;;38.30;24.10;;;;;;5026346;28;20119;-71
2022/07/17 10:21:15;;;;;;;1.10;0.80;;;38.50;26.00;;;;;;5031692;28;20086;-71
2022/07/17 10:24:01;;;;;;;1.58;0.90;;;38.50;24.90;;;;;;5038391;28;20119;-71
2022/07/17 10:26:38;;;;;;;0.90;0.90;;;38.40;26.10;;;;;;5012014;28;20071;-71
2022/07/17 10:29:09;;;;;;;1.42;1.10;;;38.60;25.90;;;;;;5017468;28;20486;-71
2022/07/17 10:31:35;;;;;;;1.20;1.10;;;39.20;25.20;;;;;;5007580;28;20104;-71
2022/07/17 10:34:05;;;;;;;3.40;1.23;;;38.90;26.20;;;;;;5019961;28;20022;-71
2022/07/17 10:36:39;;;;;;;2.17;1.30;;;38.60;25.30;;;;;;5019911;28;20025;-70
2022/07/17 10:39:16;;;;;;;1.45;0.98;;;38.50;26.10;;;;;;5011249;28;20044;-70
2022/07/17 10:41:54;;;;;;;1.80;1.02;;;38.70;26.00;;;;;;5018505;28;20487;-71
2022/07/17 10:44:25;;;;;;;2.17;1.13;;;38.20;27.20;;;;;;5017251;28;20041;-70
2022/07/17 10:46:51;;;;;;;2.38;1.10;;;37.70;25.40;;;;;;5026386;28;20480;-71
2022/07/17 10:49:16;;;;;;;1.75;1.00;;;38.20;27.20;;;;;;5027209;28;20229;-71
2022/07/17 10:51:42;;;;;;;3.50;1.23;;;38.50;27.80;;;;;;5025927;28;20115;-71
2022/07/17 10:54:08;;;;;;;4.22;1.58;;;38.70;26.70;;;;;;5030574;28;20426;-70
2022/07/17 10:56:35;;;;;;;1.60;1.50;;;38.30;26.90;;;;;;5031188;28;20488;-71
2022/07/17 10:59:03;;;;;;;1.67;1.58;;;38.30;26.30;;;;;;5031480;28;20111;-71
2022/07/17 11:01:28;;;;;;;2.25;1.23;;;37.60;24.70;;;;;;5027240;28;20112;-70
2022/07/17 11:03:59;;;;;;;1.90;1.50;;;37.40;28.00;;;;;;5027058;28;21667;-71
2022/07/17 11:06:27;;;;;;;1.60;1.50;;;37.20;27.00;;;;;;5030108;28;20283;-70
2022/07/17 11:09:05;;;;;;;2.30;1.30;;;36.80;28.10;;;;;;5027797;28;20048;-70
2022/07/17 11:11:49;;;;;;;1.40;1.30;;;37.10;30.00;;;;;;5026800;28;20440;-70
2022/07/17 11:14:20;;;;;;;3.28;1.27;;;37.30;27.20;;;;;;5032206;28;20039;-69
2022/07/17 11:16:48;;;;;;;;;;;37.20;26.90;;;;;;5030454;28;20440;-69
2022/07/17 11:19:35;;;;;;;1.45;1.25;;;36.90;27.40;;;;;;5027218;28;19912;-69
2022/07/17 11:22:03;;;;;;;2.78;1.33;;;37.00;28.40;;;;;;5028278;28;20071;-69
2022/07/17 11:24:47;;;;;;;1.95;1.60;;;37.40;29.20;;;;;;5026830;28;20037;-69
2022/07/17 11:27:27;;;;;;;1.75;1.50;;;37.60;28.50;;;;;;5025334;28;20594;-69
2022/07/17 11:29:55;;;;;;;3.05;1.80;;;37.20;27.00;;;;;;5033029;28;20056;-70
2022/07/17 11:32:22;;;;;;;2.75;1.52;;;37.20;27.40;;;;;;5021439;28;20087;-70
2022/07/17 11:34:48;;;;;;;2.70;1.55;;;36.70;27.00;;;;;;5026214;28;20044;-70
2022/07/17 11:37:15;;;;;;;2.78;1.50;;;35.90;27.80;;;;;;5021395;28;20029;-69
2022/07/17 11:39:49;;;;;;;2.47;1.60;;;35.30;28.50;;;;;;5025517;28;21644;-69
2022/07/17 11:42:17;;;;;;;1.65;1.15;;;34.70;30.10;;;;;;5029582;28;20481;-69
2022/07/17 11:44:44;;;;;;;3.28;1.70;;;34.40;31.40;;;;;;5027070;28;20139;-69
2022/07/17 11:47:10;;;;;;;1.85;1.70;;;34.10;30.90;;;;;;5023716;28;20029;-70
2022/07/17 11:49:40;;;;;;;4.13;1.90;;;34.00;30.30;;;;;;5025366;28;20060;-69
2022/07/17 11:52:11;;;;;;;3.90;1.80;;;33.80;30.80;;;;;;5027642;28;20021;-70
2022/07/17 11:54:54;;;;;;;2.95;1.58;;;33.70;31.60;;;;;;5028467;28;20056;-69
2022/07/17 11:57:21;;;;;;;3.38;1.70;;;33.90;30.20;;;;;;5027607;28;20025;-70
2022/07/17 11:59:47;;;;;;;1.92;1.50;;;33.70;32.40;;;;;;5022244;28;21590;-70
2022/07/17 12:02:19;;;;;;;5.97;1.65;;;33.50;29.60;;;;;;5025866;28;20029;-71
2022/07/17 12:04:53;;;;;;;1.95;1.60;;;33.30;31.90;;;;;;5031265;28;20029;-69
2022/07/17 12:07:20;;;;;;;2.50;1.60;;;32.70;31.70;;;;;;5015345;28;20391;-69
2022/07/17 12:09:46;;;;;;;2.65;1.63;;;32.80;33.10;;;;;;5021562;28;20155;-69
2022/07/17 12:12:26;;;;;;;2.17;1.42;;;32.90;34.70;;;;;;5027917;28;20124;-69
2022/07/17 12:14:59;;;;;;;1.80;1.50;;;32.90;32.50;;;;;;5015145;28;20036;-69
2022/07/17 12:17:38;;;;;;;2.10;1.73;;;32.50;31.90;;;;;;5033127;28;20025;-69
2022/07/17 12:20:05;;;;;;;2.78;1.73;;;32.50;31.60;;;;;;5030661;28;20025;-69
2022/07/17 12:22:41;;;;;;;1.75;1.63;;;32.50;30.20;;;;;;5033247;28;20032;-69
2022/07/17 12:25:07;;;;;;;2.25;1.67;;;32.40;34.70;;;;;;5033727;28;20060;-69
2022/07/17 12:27:33;;;;;;;1.77;1.67;;;32.60;34.80;;;;;;5033584;28;20064;-69
2022/07/17 12:29:58;;;;;;;1.83;1.67;;;32.60;30.30;;;;;;5031988;28;20033;-69
2022/07/17 12:32:24;;;;;;;2.35;1.70;;;32.30;31.50;;;;;;5028275;28;20032;-69
2022/07/17 12:34:50;;;;;;;1.98;1.70;;;32.20;31.60;;;;;;5026419;28;20032;-68
2022/07/17 12:37:17;;;;;;;2.10;1.90;;;32.00;35.10;;;;;;5034695;28;20398;-68
2022/07/17 12:39:44;;;;;;;2.38;1.83;;;32.00;34.10;;;;;;5029290;28;20322;-68
2022/07/17 12:47:47;;;;;;;1.90;1.67;;;31.70;35.00;;;;;;5523797;23;20508;-73
2022/07/17 12:50:13;;;;;;;2.42;1.60;;;31.90;34.30;;;;;;4876301;29;20028;-73
2022/07/17 12:52:38;;;;;;;2.63;2.00;;;31.40;33.10;;;;;;4870355;29;20380;-73